sensor_id;sensor_type;location;lat;lon;timestamp;temperature;humidity
16974;DHT22;8603;46.944;7.412;2022-07-29T00:01:06;17.70;99.90
16974;DHT22;8603;46.944;7.412;2022-07-29T00:03:32;17.60;99.90
16974;DHT22;8603;46.944;7.412;2022-07-29T00:05:58;17.60;99.90
16974;DHT22;8603;46.944;7.412;2022-07-29T00:08:23;17.60;99.90
16974;DHT22;8603;46.944;7.412;2022-07-29T00:10:49;17.60;99.90
16974;DHT22;8603;46.944;7.412;2022-07-29T00:13:15;17.50;99.90
16974;DHT22;8603;46.944;7.412;2022-07-29T00:15:40;17.50;99.90
16974;DHT22;8603;46.944;7.412;2022-07-29T00:18:06;17.50;99.90
16974;DHT22;8603;46.944;7.412;2022-07-29T00:20:32;17.40;99.90
16974;DHT22;8603;46.944;7.412;2022-07-29T00:22:58;17.40;99.90
16974;DHT22;8603;46.944;7.412;2022-07-29T00:25:23;17.40;99.90
16974;DHT22;8603;46.944;7.412;2022-07-29T00:27:49;17.40;99.90
16974;DHT22;8603;46.944;7.412;2022-07-29T00:30:15;17.40;99.90
16974;DHT22;8603;46.944;7.412;2022-07-29T00:32:40;17.40;99.90
16974;DHT22;8603;46.944;7.412;2022-07-29T00:35:06;17.40;99.90
16974;DHT22;8603;46.944;7.412;2022-07-29T00:37:55;17.30;99.90
16974;DHT22;8603;46.944;7.412;2022-07-29T00:40:21;17.30;99.90
16974;DHT22;8603;46.944;7.412;2022-07-29T00:42:49;17.30;99.90
16974;DHT22;8603;46.944;7.412;2022-07-29T00:45:16;17.20;99.90
16974;DHT22;8603;46.944;7.412;2022-07-29T00:47:42;17.20;99.90
16974;DHT22;8603;46.944;7.412;2022-07-29T00:50:09;17.20;99.90
16974;DHT22;8603;46.944;7.412;2022-07-29T00:52:36;17.20;99.90
16974;DHT22;8603;46.944;7.412;2022-07-29T00:55:08;17.20;99.90
16974;DHT22;8603;46.944;7.412;2022-07-29T00:57:35;17.20;99.90
16974;DHT22;8603;46.944;7.412;2022-07-29T01:00:01;17.10;99.90
16974;DHT22;8603;46.944;7.412;2022-07-29T01:02:26;17.20;99.90
16974;DHT22;8603;46.944;7.412;2022-07-29T01:04:53;17.10;99.90
16974;DHT22;8603;46.944;7.412;2022-07-29T01:07:18;17.10;99.90
16974;DHT22;8603;46.944;7.412;2022-07-29T01:09:45;17.10;99.90
16974;DHT22;8603;46.944;7.412;2022-07-29T01:12:18;17.10;99.90
16974;DHT22;8603;46.944;7.412;2022-07-29T01:14:47;17.10;99.90
16974;DHT22;8603;46.944;7.412;2022-07-29T01:17:26;17.10;99.90
16974;DHT22;8603;46.944;7.412;2022-07-29T01:31:48;17.10;99.90
16974;DHT22;8603;46.944;7.412;2022-07-29T01:34:35;17.10;99.90
16974;DHT22;8603;46.944;7.412;2022-07-29T01:39:35;17.20;99.90
16974;DHT22;8603;46.944;7.412;2022-07-29T01:42:23;17.20;99.90
16974;DHT22;8603;46.944;7.412;2022-07-29T01:45:10;17.20;99.90
16974;DHT22;8603;46.944;7.412;2022-07-29T01:47:42;17.20;99.90
16974;DHT22;8603;46.944;7.412;2022-07-29T01:50:11;17.30;99.90
16974;DHT22;8603;46.944;7.412;2022-07-29T01:52:49;17.30;99.90
16974;DHT22;8603;46.944;7.412;2022-07-29T01:55:20;17.30;99.90
16974;DHT22;8603;46.944;7.412;2022-07-29T01:57:48;17.30;99.90
16974;DHT22;8603;46.944;7.412;2022-07-29T02:00:15;17.20;99.90
16974;DHT22;8603;46.944;7.412;2022-07-29T02:02:43;17.30;99.90
16974;DHT22;8603;46.944;7.412;2022-07-29T02:05:12;17.20;99.90
16974;DHT22;8603;46.944;7.412;2022-07-29T02:07:40;17.30;99.90
16974;DHT22;8603;46.944;7.412;2022-07-29T02:10:08;17.30;99.90
16974;DHT22;8603;46.944;7.412;2022-07-29T02:12:35;17.30;99.90
16974;DHT22;8603;46.944;7.412;2022-07-29T02:15:03;17.20;99.90
16974;DHT22;8603;46.944;7.412;2022-07-29T02:17:33;17.20;99.90
16974;DHT22;8603;46.944;7.412;2022-07-29T02:20:03;17.20;99.90
16974;DHT22;8603;46.944;7.412;2022-07-29T02:22:31;17.20;99.90
16974;DHT22;8603;46.944;7.412;2022-07-29T02:24:59;17.20;99.90
16974;DHT22;8603;46.944;7.412;2022-07-29T02:27:26;17.20;99.90
16974;DHT22;8603;46.944;7.412;2022-07-29T02:29:54;17.20;99.90
16974;DHT22;8603;46.944;7.412;2022-07-29T02:32:22;17.20;99.90
16974;DHT22;8603;46.944;7.412;2022-07-29T02:34:51;17.30;99.90
16974;DHT22;8603;46.944;7.412;2022-07-29T02:37:18;17.20;99.90
16974;DHT22;8603;46.944;7.412;2022-07-29T02:39:44;17.20;99.90
16974;DHT22;8603;46.944;7.412;2022-07-29T02:42:13;17.20;99.90
16974;DHT22;8603;46.944;7.412;2022-07-29T02:44:40;17.20;99.90
16974;DHT22;8603;46.944;7.412;2022-07-29T02:47:19;17.30;99.90
16974;DHT22;8603;46.944;7.412;2022-07-29T02:49:56;17.30;99.90
16974;DHT22;8603;46.944;7.412;2022-07-29T02:52:31;17.30;99.90
16974;DHT22;8603;46.944;7.412;2022-07-29T02:55:03;17.30;99.90
16974;DHT22;8603;46.944;7.412;2022-07-29T02:57:40;17.30;99.90
16974;DHT22;8603;46.944;7.412;2022-07-29T03:00:08;17.30;99.90
16974;DHT22;8603;46.944;7.412;2022-07-29T03:02:42;17.30;99.90
16974;DHT22;8603;46.944;7.412;2022-07-29T03:05:13;17.30;99.90
16974;DHT22;8603;46.944;7.412;2022-07-29T03:07:41;17.40;99.90
16974;DHT22;8603;46.944;7.412;2022-07-29T03:10:08;17.40;99.90
16974;DHT22;8603;46.944;7.412;2022-07-29T03:12:35;17.40;99.90
16974;DHT22;8603;46.944;7.412;2022-07-29T03:15:01;17.40;99.90
16974;DHT22;8603;46.944;7.412;2022-07-29T03:17:27;17.40;99.90
16974;DHT22;8603;46.944;7.412;2022-07-29T03:19:54;17.40;99.90
16974;DHT22;8603;46.944;7.412;2022-07-29T03:22:20;17.30;99.90
16974;DHT22;8603;46.944;7.412;2022-07-29T03:24:46;17.30;99.90
16974;DHT22;8603;46.944;7.412;2022-07-29T03:27:11;17.20;99.90
16974;DHT22;8603;46.944;7.412;2022-07-29T03:29:37;17.20;99.90
16974;DHT22;8603;46.944;7.412;2022-07-29T03:32:04;17.10;99.90
16974;DHT22;8603;46.944;7.412;2022-07-29T03:34:30;17.10;99.90
16974;DHT22;8603;46.944;7.412;2022-07-29T03:36:56;17.00;99.90
16974;DHT22;8603;46.944;7.412;2022-07-29T03:39:24;17.00;99.90
16974;DHT22;8603;46.944;7.412;2022-07-29T03:41:53;17.00;99.90
16974;DHT22;8603;46.944;7.412;2022-07-29T03:44:20;17.00;99.90
16974;DHT22;8603;46.944;7.412;2022-07-29T03:46:48;17.10;99.90
16974;DHT22;8603;46.944;7.412;2022-07-29T03:49:16;17.00;99.90
16974;DHT22;8603;46.944;7.412;2022-07-29T03:51:44;17.10;99.90
16974;DHT22;8603;46.944;7.412;2022-07-29T03:54:09;17.10;99.90
16974;DHT22;8603;46.944;7.412;2022-07-29T03:56:40;17.10;99.90
16974;DHT22;8603;46.944;7.412;2022-07-29T03:59:06;17.20;99.90
16974;DHT22;8603;46.944;7.412;2022-07-29T04:01:34;17.10;99.90
16974;DHT22;8603;46.944;7.412;2022-07-29T04:04:01;17.10;99.90
16974;DHT22;8603;46.944;7.412;2022-07-29T04:06:27;17.10;99.90
16974;DHT22;8603;46.944;7.412;2022-07-29T04:08:52;17.10;99.90
16974;DHT22;8603;46.944;7.412;2022-07-29T04:11:18;17.10;99.90
16974;DHT22;8603;46.944;7.412;2022-07-29T04:13:44;17.10;99.90
16974;DHT22;8603;46.944;7.412;2022-07-29T04:16:10;17.00;99.90
16974;DHT22;8603;46.944;7.412;2022-07-29T04:18:35;17.00;99.90
16974;DHT22;8603;46.944;7.412;2022-07-29T04:21:01;17.00;99.90
16974;DHT22;8603;46.944;7.412;2022-07-29T04:23:30;17.00;99.90
16974;DHT22;8603;46.944;7.412;2022-07-29T04:25:58;16.90;99.90
16974;DHT22;8603;46.944;7.412;2022-07-29T04:28:25;17.00;99.90
16974;DHT22;8603;46.944;7.412;2022-07-29T04:30:51;17.00;99.90
16974;DHT22;8603;46.944;7.412;2022-07-29T04:33:16;17.00;99.90
16974;DHT22;8603;46.944;7.412;2022-07-29T04:35:42;17.10;99.90
16974;DHT22;8603;46.944;7.412;2022-07-29T04:38:07;17.00;99.90
16974;DHT22;8603;46.944;7.412;2022-07-29T04:40:33;17.10;99.90
16974;DHT22;8603;46.944;7.412;2022-07-29T04:43:00;17.10;99.90
16974;DHT22;8603;46.944;7.412;2022-07-29T04:45:27;17.10;99.90
16974;DHT22;8603;46.944;7.412;2022-07-29T04:47:52;17.00;99.90
16974;DHT22;8603;46.944;7.412;2022-07-29T04:50:18;17.10;99.90
16974;DHT22;8603;46.944;7.412;2022-07-29T04:52:44;17.10;99.90
16974;DHT22;8603;46.944;7.412;2022-07-29T04:55:09;17.10;99.90
16974;DHT22;8603;46.944;7.412;2022-07-29T04:57:35;17.10;99.90
16974;DHT22;8603;46.944;7.412;2022-07-29T05:00:01;17.10;99.90
16974;DHT22;8603;46.944;7.412;2022-07-29T05:02:26;17.10;99.90
16974;DHT22;8603;46.944;7.412;2022-07-29T05:04:52;17.20;99.90
16974;DHT22;8603;46.944;7.412;2022-07-29T05:07:17;17.20;99.90
16974;DHT22;8603;46.944;7.412;2022-07-29T05:09:43;17.20;99.90
16974;DHT22;8603;46.944;7.412;2022-07-29T05:12:08;17.20;99.90
16974;DHT22;8603;46.944;7.412;2022-07-29T05:14:35;17.20;99.90
16974;DHT22;8603;46.944;7.412;2022-07-29T05:17:00;17.20;99.90
16974;DHT22;8603;46.944;7.412;2022-07-29T05:19:26;17.20;99.90
16974;DHT22;8603;46.944;7.412;2022-07-29T05:21:51;17.20;99.90
16974;DHT22;8603;46.944;7.412;2022-07-29T05:24:17;17.20;99.90
16974;DHT22;8603;46.944;7.412;2022-07-29T05:26:42;17.20;99.90
16974;DHT22;8603;46.944;7.412;2022-07-29T05:29:08;17.20;99.90
16974;DHT22;8603;46.944;7.412;2022-07-29T05:31:34;17.20;99.90
16974;DHT22;8603;46.944;7.412;2022-07-29T05:34:00;17.10;99.90
16974;DHT22;8603;46.944;7.412;2022-07-29T05:36:25;17.10;99.90
16974;DHT22;8603;46.944;7.412;2022-07-29T05:38:51;17.10;99.90
16974;DHT22;8603;46.944;7.412;2022-07-29T05:41:18;17.10;99.90
16974;DHT22;8603;46.944;7.412;2022-07-29T05:43:43;17.10;99.90
16974;DHT22;8603;46.944;7.412;2022-07-29T05:46:09;17.20;99.90
16974;DHT22;8603;46.944;7.412;2022-07-29T05:48:34;17.10;99.90
16974;DHT22;8603;46.944;7.412;2022-07-29T05:51:01;17.20;99.90
16974;DHT22;8603;46.944;7.412;2022-07-29T05:53:26;17.20;99.90
16974;DHT22;8603;46.944;7.412;2022-07-29T05:55:52;17.20;99.90
16974;DHT22;8603;46.944;7.412;2022-07-29T05:58:18;17.20;99.90
16974;DHT22;8603;46.944;7.412;2022-07-29T06:00:43;17.20;99.90
16974;DHT22;8603;46.944;7.412;2022-07-29T06:03:09;17.20;99.90
16974;DHT22;8603;46.944;7.412;2022-07-29T06:05:34;17.20;99.90
16974;DHT22;8603;46.944;7.412;2022-07-29T06:08:00;17.20;99.90
16974;DHT22;8603;46.944;7.412;2022-07-29T06:10:25;17.20;99.90
16974;DHT22;8603;46.944;7.412;2022-07-29T06:12:52;17.20;99.90
16974;DHT22;8603;46.944;7.412;2022-07-29T06:15:17;17.30;99.90
16974;DHT22;8603;46.944;7.412;2022-07-29T06:17:43;17.30;99.90
16974;DHT22;8603;46.944;7.412;2022-07-29T06:20:09;17.50;99.90
16974;DHT22;8603;46.944;7.412;2022-07-29T06:22:35;17.70;99.90
16974;DHT22;8603;46.944;7.412;2022-07-29T06:25:02;18.00;99.90
16974;DHT22;8603;46.944;7.412;2022-07-29T06:27:28;18.20;99.90
16974;DHT22;8603;46.944;7.412;2022-07-29T06:29:53;18.30;99.90
16974;DHT22;8603;46.944;7.412;2022-07-29T06:32:19;18.30;99.90
16974;DHT22;8603;46.944;7.412;2022-07-29T06:34:44;18.20;99.90
16974;DHT22;8603;46.944;7.412;2022-07-29T06:37:10;18.10;99.90
16974;DHT22;8603;46.944;7.412;2022-07-29T06:39:36;18.00;99.90
16974;DHT22;8603;46.944;7.412;2022-07-29T06:42:03;17.90;99.90
16974;DHT22;8603;46.944;7.412;2022-07-29T06:44:28;17.90;99.90
16974;DHT22;8603;46.944;7.412;2022-07-29T06:46:55;17.90;99.90
16974;DHT22;8603;46.944;7.412;2022-07-29T06:49:21;17.90;99.90
16974;DHT22;8603;46.944;7.412;2022-07-29T06:51:47;17.80;99.90
16974;DHT22;8603;46.944;7.412;2022-07-29T06:54:12;17.90;99.90
16974;DHT22;8603;46.944;7.412;2022-07-29T06:56:38;17.90;99.90
16974;DHT22;8603;46.944;7.412;2022-07-29T06:59:07;18.00;99.90
16974;DHT22;8603;46.944;7.412;2022-07-29T07:01:33;18.10;99.90
16974;DHT22;8603;46.944;7.412;2022-07-29T07:03:59;18.20;99.90
16974;DHT22;8603;46.944;7.412;2022-07-29T07:06:24;18.30;99.90
16974;DHT22;8603;46.944;7.412;2022-07-29T07:08:50;18.30;99.90
16974;DHT22;8603;46.944;7.412;2022-07-29T07:11:15;18.40;99.90
16974;DHT22;8603;46.944;7.412;2022-07-29T07:13:41;18.50;99.90
16974;DHT22;8603;46.944;7.412;2022-07-29T07:16:06;18.70;99.90
16974;DHT22;8603;46.944;7.412;2022-07-29T07:18:32;18.80;99.90
16974;DHT22;8603;46.944;7.412;2022-07-29T07:20:58;18.90;99.90
16974;DHT22;8603;46.944;7.412;2022-07-29T07:23:23;19.00;99.90
16974;DHT22;8603;46.944;7.412;2022-07-29T07:25:50;19.00;99.90
16974;DHT22;8603;46.944;7.412;2022-07-29T07:28:16;19.00;99.90
16974;DHT22;8603;46.944;7.412;2022-07-29T07:30:41;18.90;99.90
16974;DHT22;8603;46.944;7.412;2022-07-29T07:33:07;18.80;99.90
16974;DHT22;8603;46.944;7.412;2022-07-29T07:35:33;18.70;99.90
16974;DHT22;8603;46.944;7.412;2022-07-29T07:37:58;18.60;99.90
16974;DHT22;8603;46.944;7.412;2022-07-29T07:40:24;18.50;99.90
16974;DHT22;8603;46.944;7.412;2022-07-29T07:42:50;18.50;99.90
16974;DHT22;8603;46.944;7.412;2022-07-29T07:45:15;18.50;99.90
16974;DHT22;8603;46.944;7.412;2022-07-29T07:47:41;18.50;99.90
16974;DHT22;8603;46.944;7.412;2022-07-29T07:50:09;18.50;99.90
16974;DHT22;8603;46.944;7.412;2022-07-29T07:52:52;18.60;99.90
16974;DHT22;8603;46.944;7.412;2022-07-29T07:55:18;18.70;99.90
16974;DHT22;8603;46.944;7.412;2022-07-29T07:57:44;18.70;99.90
16974;DHT22;8603;46.944;7.412;2022-07-29T08:00:12;18.80;99.90
16974;DHT22;8603;46.944;7.412;2022-07-29T08:02:38;18.80;99.90
16974;DHT22;8603;46.944;7.412;2022-07-29T08:05:05;18.90;99.90
16974;DHT22;8603;46.944;7.412;2022-07-29T08:07:31;18.90;99.90
16974;DHT22;8603;46.944;7.412;2022-07-29T08:09:57;18.90;99.90
16974;DHT22;8603;46.944;7.412;2022-07-29T08:12:22;18.80;99.90
16974;DHT22;8603;46.944;7.412;2022-07-29T08:14:48;18.70;99.90
16974;DHT22;8603;46.944;7.412;2022-07-29T08:17:14;18.70;99.90
16974;DHT22;8603;46.944;7.412;2022-07-29T08:19:39;18.80;99.90
16974;DHT22;8603;46.944;7.412;2022-07-29T08:22:05;18.80;99.90
16974;DHT22;8603;46.944;7.412;2022-07-29T08:24:30;18.90;99.90
16974;DHT22;8603;46.944;7.412;2022-07-29T08:27:09;19.10;99.90
16974;DHT22;8603;46.944;7.412;2022-07-29T08:29:35;19.30;99.90
16974;DHT22;8603;46.944;7.412;2022-07-29T08:32:01;19.70;99.90
16974;DHT22;8603;46.944;7.412;2022-07-29T08:34:27;20.00;99.90
16974;DHT22;8603;46.944;7.412;2022-07-29T08:36:54;20.30;99.90
16974;DHT22;8603;46.944;7.412;2022-07-29T08:39:20;20.50;99.90
16974;DHT22;8603;46.944;7.412;2022-07-29T08:41:45;20.80;99.90
16974;DHT22;8603;46.944;7.412;2022-07-29T08:44:11;20.90;99.90
16974;DHT22;8603;46.944;7.412;2022-07-29T08:46:37;21.10;99.90
16974;DHT22;8603;46.944;7.412;2022-07-29T08:49:04;21.30;99.90
16974;DHT22;8603;46.944;7.412;2022-07-29T08:51:30;21.60;99.90
16974;DHT22;8603;46.944;7.412;2022-07-29T08:53:57;21.90;99.90
16974;DHT22;8603;46.944;7.412;2022-07-29T08:56:23;22.10;99.90
16974;DHT22;8603;46.944;7.412;2022-07-29T08:58:49;22.20;99.90
16974;DHT22;8603;46.944;7.412;2022-07-29T09:01:21;22.20;99.90
16974;DHT22;8603;46.944;7.412;2022-07-29T09:03:47;22.20;99.90
16974;DHT22;8603;46.944;7.412;2022-07-29T09:06:15;22.30;99.90
16974;DHT22;8603;46.944;7.412;2022-07-29T09:08:42;22.30;99.90
16974;DHT22;8603;46.944;7.412;2022-07-29T09:11:08;22.30;99.90
16974;DHT22;8603;46.944;7.412;2022-07-29T09:13:34;22.30;99.90
16974;DHT22;8603;46.944;7.412;2022-07-29T09:15:59;22.30;99.90
16974;DHT22;8603;46.944;7.412;2022-07-29T09:18:40;22.40;99.90
16974;DHT22;8603;46.944;7.412;2022-07-29T09:21:09;22.40;99.90
16974;DHT22;8603;46.944;7.412;2022-07-29T09:26:30;22.50;99.90
16974;DHT22;8603;46.944;7.412;2022-07-29T09:28:57;22.60;99.90
16974;DHT22;8603;46.944;7.412;2022-07-29T09:31:34;22.60;99.90
16974;DHT22;8603;46.944;7.412;2022-07-29T09:34:00;22.60;99.90
16974;DHT22;8603;46.944;7.412;2022-07-29T09:36:26;22.60;99.90
16974;DHT22;8603;46.944;7.412;2022-07-29T09:39:01;22.60;99.90
16974;DHT22;8603;46.944;7.412;2022-07-29T09:41:28;22.50;99.90
16974;DHT22;8603;46.944;7.412;2022-07-29T09:43:58;22.60;99.90
16974;DHT22;8603;46.944;7.412;2022-07-29T09:46:24;22.70;99.90
16974;DHT22;8603;46.944;7.412;2022-07-29T09:49:10;22.90;99.90
16974;DHT22;8603;46.944;7.412;2022-07-29T09:51:36;23.20;99.90
16974;DHT22;8603;46.944;7.412;2022-07-29T09:54:20;23.40;99.90
16974;DHT22;8603;46.944;7.412;2022-07-29T09:56:46;23.60;99.90
16974;DHT22;8603;46.944;7.412;2022-07-29T09:59:13;23.70;99.90
16974;DHT22;8603;46.944;7.412;2022-07-29T10:01:39;23.80;99.90
16974;DHT22;8603;46.944;7.412;2022-07-29T10:04:05;23.80;99.90
16974;DHT22;8603;46.944;7.412;2022-07-29T10:06:30;23.80;99.90
16974;DHT22;8603;46.944;7.412;2022-07-29T10:09:16;23.90;99.90
16974;DHT22;8603;46.944;7.412;2022-07-29T10:11:42;23.90;99.90
16974;DHT22;8603;46.944;7.412;2022-07-29T10:14:27;23.90;99.90
16974;DHT22;8603;46.944;7.412;2022-07-29T10:16:53;23.80;99.90
16974;DHT22;8603;46.944;7.412;2022-07-29T10:19:19;23.70;99.90
16974;DHT22;8603;46.944;7.412;2022-07-29T10:21:45;23.70;99.90
16974;DHT22;8603;46.944;7.412;2022-07-29T10:24:11;23.70;99.90
16974;DHT22;8603;46.944;7.412;2022-07-29T10:26:37;23.80;99.90
16974;DHT22;8603;46.944;7.412;2022-07-29T10:29:06;23.80;99.90
16974;DHT22;8603;46.944;7.412;2022-07-29T10:31:44;23.90;99.90
16974;DHT22;8603;46.944;7.412;2022-07-29T10:42:21;24.00;99.90
16974;DHT22;8603;46.944;7.412;2022-07-29T10:44:49;24.10;99.90
16974;DHT22;8603;46.944;7.412;2022-07-29T10:47:25;24.10;99.90
16974;DHT22;8603;46.944;7.412;2022-07-29T10:50:03;24.10;99.90
16974;DHT22;8603;46.944;7.412;2022-07-29T10:55:39;24.20;99.90
16974;DHT22;8603;46.944;7.412;2022-07-29T11:00:40;24.20;99.90
16974;DHT22;8603;46.944;7.412;2022-07-29T11:03:05;24.20;99.90
16974;DHT22;8603;46.944;7.412;2022-07-29T11:06:00;24.10;99.90
16974;DHT22;8603;46.944;7.412;2022-07-29T11:08:26;24.10;99.90
16974;DHT22;8603;46.944;7.412;2022-07-29T11:16:08;24.10;99.90
16974;DHT22;8603;46.944;7.412;2022-07-29T11:18:34;24.10;99.90
16974;DHT22;8603;46.944;7.412;2022-07-29T11:20:59;24.00;99.90
16974;DHT22;8603;46.944;7.412;2022-07-29T11:23:33;24.00;99.90
16974;DHT22;8603;46.944;7.412;2022-07-29T11:26:17;24.00;99.90
16974;DHT22;8603;46.944;7.412;2022-07-29T11:29:14;24.10;99.90
16974;DHT22;8603;46.944;7.412;2022-07-29T11:31:50;24.10;99.90
16974;DHT22;8603;46.944;7.412;2022-07-29T11:39:37;24.30;99.90
16974;DHT22;8603;46.944;7.412;2022-07-29T11:47:29;24.10;99.90
16974;DHT22;8603;46.944;7.412;2022-07-29T11:49:56;24.10;99.90
16974;DHT22;8603;46.944;7.412;2022-07-29T11:52:37;24.00;99.90
16974;DHT22;8603;46.944;7.412;2022-07-29T11:55:09;23.90;99.90
16974;DHT22;8603;46.944;7.412;2022-07-29T11:57:35;23.90;99.90
16974;DHT22;8603;46.944;7.412;2022-07-29T12:00:02;23.90;99.90
16974;DHT22;8603;46.944;7.412;2022-07-29T12:02:43;23.80;99.90
16974;DHT22;8603;46.944;7.412;2022-07-29T12:05:09;23.70;99.90
16974;DHT22;8603;46.944;7.412;2022-07-29T12:07:37;23.70;99.90
16974;DHT22;8603;46.944;7.412;2022-07-29T12:10:04;23.60;99.90
16974;DHT22;8603;46.944;7.412;2022-07-29T12:12:30;23.50;99.90
16974;DHT22;8603;46.944;7.412;2022-07-29T12:14:56;23.30;99.90
16974;DHT22;8603;46.944;7.412;2022-07-29T12:17:33;23.20;99.90
16974;DHT22;8603;46.944;7.412;2022-07-29T12:20:01;23.10;99.90
16974;DHT22;8603;46.944;7.412;2022-07-29T12:22:36;23.10;99.90
16974;DHT22;8603;46.944;7.412;2022-07-29T12:25:07;23.00;99.90
16974;DHT22;8603;46.944;7.412;2022-07-29T12:27:33;22.90;99.90
16974;DHT22;8603;46.944;7.412;2022-07-29T12:30:01;22.80;99.90
16974;DHT22;8603;46.944;7.412;2022-07-29T12:32:35;22.70;99.90
16974;DHT22;8603;46.944;7.412;2022-07-29T12:35:05;22.60;99.90
16974;DHT22;8603;46.944;7.412;2022-07-29T12:37:34;22.60;99.90
16974;DHT22;8603;46.944;7.412;2022-07-29T12:40:01;22.40;99.90
16974;DHT22;8603;46.944;7.412;2022-07-29T12:42:27;22.40;99.90
16974;DHT22;8603;46.944;7.412;2022-07-29T12:44:53;22.30;99.90
16974;DHT22;8603;46.944;7.412;2022-07-29T12:47:19;22.20;99.90
16974;DHT22;8603;46.944;7.412;2022-07-29T12:49:46;22.00;99.90
16974;DHT22;8603;46.944;7.412;2022-07-29T12:54:52;21.80;99.90
16974;DHT22;8603;46.944;7.412;2022-07-29T12:57:18;21.70;99.90
16974;DHT22;8603;46.944;7.412;2022-07-29T12:59:44;21.50;99.90
16974;DHT22;8603;46.944;7.412;2022-07-29T13:02:22;21.40;99.90
16974;DHT22;8603;46.944;7.412;2022-07-29T13:04:56;21.30;99.90
16974;DHT22;8603;46.944;7.412;2022-07-29T13:07:30;21.20;99.90
16974;DHT22;8603;46.944;7.412;2022-07-29T13:10:15;21.00;99.90
16974;DHT22;8603;46.944;7.412;2022-07-29T13:13:02;20.90;99.90
16974;DHT22;8603;46.944;7.412;2022-07-29T13:15:28;20.80;99.90
16974;DHT22;8603;46.944;7.412;2022-07-29T13:17:54;20.60;99.90
16974;DHT22;8603;46.944;7.412;2022-07-29T13:20:24;20.40;99.90
16974;DHT22;8603;46.944;7.412;2022-07-29T13:22:50;20.30;99.90
16974;DHT22;8603;46.944;7.412;2022-07-29T13:25:27;20.20;99.90
16974;DHT22;8603;46.944;7.412;2022-07-29T13:27:53;20.10;99.90
16974;DHT22;8603;46.944;7.412;2022-07-29T13:30:20;20.00;99.90
16974;DHT22;8603;46.944;7.412;2022-07-29T13:32:46;19.90;99.90
16974;DHT22;8603;46.944;7.412;2022-07-29T13:35:12;19.90;99.90
16974;DHT22;8603;46.944;7.412;2022-07-29T13:37:39;19.90;99.90
16974;DHT22;8603;46.944;7.412;2022-07-29T13:40:06;19.80;99.90
16974;DHT22;8603;46.944;7.412;2022-07-29T13:42:32;19.80;99.90
16974;DHT22;8603;46.944;7.412;2022-07-29T13:44:58;19.80;99.90
16974;DHT22;8603;46.944;7.412;2022-07-29T13:47:24;19.80;99.90
16974;DHT22;8603;46.944;7.412;2022-07-29T13:49:50;19.80;99.90
16974;DHT22;8603;46.944;7.412;2022-07-29T13:52:16;19.80;99.90
16974;DHT22;8603;46.944;7.412;2022-07-29T13:54:42;19.70;99.90
16974;DHT22;8603;46.944;7.412;2022-07-29T13:57:09;19.70;99.90
16974;DHT22;8603;46.944;7.412;2022-07-29T13:59:36;19.70;99.90
16974;DHT22;8603;46.944;7.412;2022-07-29T14:02:02;19.80;99.90
16974;DHT22;8603;46.944;7.412;2022-07-29T14:04:28;19.80;99.90
16974;DHT22;8603;46.944;7.412;2022-07-29T14:06:53;19.80;99.90
16974;DHT22;8603;46.944;7.412;2022-07-29T14:09:19;19.80;99.90
16974;DHT22;8603;46.944;7.412;2022-07-29T14:11:45;19.80;99.90
16974;DHT22;8603;46.944;7.412;2022-07-29T14:14:11;19.80;99.90
16974;DHT22;8603;46.944;7.412;2022-07-29T14:16:37;19.80;99.90
16974;DHT22;8603;46.944;7.412;2022-07-29T14:19:02;19.80;99.90
16974;DHT22;8603;46.944;7.412;2022-07-29T14:21:28;19.70;99.90
16974;DHT22;8603;46.944;7.412;2022-07-29T14:23:54;19.70;99.90
16974;DHT22;8603;46.944;7.412;2022-07-29T14:26:20;19.70;99.90
16974;DHT22;8603;46.944;7.412;2022-07-29T14:28:47;19.60;99.90
16974;DHT22;8603;46.944;7.412;2022-07-29T14:31:12;19.60;99.90
16974;DHT22;8603;46.944;7.412;2022-07-29T14:33:38;19.50;99.90
16974;DHT22;8603;46.944;7.412;2022-07-29T14:36:04;19.60;99.90
16974;DHT22;8603;46.944;7.412;2022-07-29T14:38:29;19.60;99.90
16974;DHT22;8603;46.944;7.412;2022-07-29T14:40:55;19.70;99.90
16974;DHT22;8603;46.944;7.412;2022-07-29T14:43:20;19.70;99.90
16974;DHT22;8603;46.944;7.412;2022-07-29T14:45:46;19.70;99.90
16974;DHT22;8603;46.944;7.412;2022-07-29T14:48:11;19.80;99.90
16974;DHT22;8603;46.944;7.412;2022-07-29T14:50:37;19.80;99.90
16974;DHT22;8603;46.944;7.412;2022-07-29T14:53:03;19.80;99.90
16974;DHT22;8603;46.944;7.412;2022-07-29T14:55:29;19.80;99.90
16974;DHT22;8603;46.944;7.412;2022-07-29T14:57:54;19.80;99.90
16974;DHT22;8603;46.944;7.412;2022-07-29T15:00:21;19.80;99.90
16974;DHT22;8603;46.944;7.412;2022-07-29T15:02:47;19.80;99.90
16974;DHT22;8603;46.944;7.412;2022-07-29T15:05:13;19.70;99.90
16974;DHT22;8603;46.944;7.412;2022-07-29T15:07:39;19.70;99.90
16974;DHT22;8603;46.944;7.412;2022-07-29T15:10:05;19.80;99.90
16974;DHT22;8603;46.944;7.412;2022-07-29T15:12:31;19.70;99.90
16974;DHT22;8603;46.944;7.412;2022-07-29T15:14:57;19.70;99.90
16974;DHT22;8603;46.944;7.412;2022-07-29T15:17:23;19.70;99.90
16974;DHT22;8603;46.944;7.412;2022-07-29T15:19:49;19.70;99.90
16974;DHT22;8603;46.944;7.412;2022-07-29T15:22:14;19.60;99.90
16974;DHT22;8603;46.944;7.412;2022-07-29T15:24:40;19.50;99.90
16974;DHT22;8603;46.944;7.412;2022-07-29T15:27:05;19.50;99.90
16974;DHT22;8603;46.944;7.412;2022-07-29T15:29:31;19.50;99.90
16974;DHT22;8603;46.944;7.412;2022-07-29T15:31:57;19.50;99.90
16974;DHT22;8603;46.944;7.412;2022-07-29T15:34:22;19.50;99.90
16974;DHT22;8603;46.944;7.412;2022-07-29T15:36:51;19.60;99.90
16974;DHT22;8603;46.944;7.412;2022-07-29T15:39:17;19.70;99.90
16974;DHT22;8603;46.944;7.412;2022-07-29T15:41:43;19.80;99.90
16974;DHT22;8603;46.944;7.412;2022-07-29T15:44:08;19.90;99.90
16974;DHT22;8603;46.944;7.412;2022-07-29T15:46:34;20.00;99.90
16974;DHT22;8603;46.944;7.412;2022-07-29T15:49:18;20.10;99.90
16974;DHT22;8603;46.944;7.412;2022-07-29T15:51:44;20.20;99.90
16974;DHT22;8603;46.944;7.412;2022-07-29T15:54:09;20.30;99.90
16974;DHT22;8603;46.944;7.412;2022-07-29T15:56:35;20.40;99.90
16974;DHT22;8603;46.944;7.412;2022-07-29T15:59:00;20.40;99.90
16974;DHT22;8603;46.944;7.412;2022-07-29T16:01:26;20.40;99.90
16974;DHT22;8603;46.944;7.412;2022-07-29T16:03:52;20.40;99.90
16974;DHT22;8603;46.944;7.412;2022-07-29T16:06:18;20.30;99.90
16974;DHT22;8603;46.944;7.412;2022-07-29T16:08:43;20.30;99.90
16974;DHT22;8603;46.944;7.412;2022-07-29T16:11:09;20.30;99.90
16974;DHT22;8603;46.944;7.412;2022-07-29T16:13:34;20.40;99.90
16974;DHT22;8603;46.944;7.412;2022-07-29T16:16:00;20.40;99.90
16974;DHT22;8603;46.944;7.412;2022-07-29T16:18:25;20.40;99.90
16974;DHT22;8603;46.944;7.412;2022-07-29T16:20:51;20.40;99.90
16974;DHT22;8603;46.944;7.412;2022-07-29T16:23:17;20.40;99.90
16974;DHT22;8603;46.944;7.412;2022-07-29T16:25:42;20.30;99.90
16974;DHT22;8603;46.944;7.412;2022-07-29T16:28:08;20.30;99.90
16974;DHT22;8603;46.944;7.412;2022-07-29T16:30:35;20.20;99.90
16974;DHT22;8603;46.944;7.412;2022-07-29T16:33:01;20.20;99.90
16974;DHT22;8603;46.944;7.412;2022-07-29T16:35:27;20.10;99.90
16974;DHT22;8603;46.944;7.412;2022-07-29T16:37:55;20.10;99.90